EFHA

Halli Airport

Halli / Kuorevesi, Finland
METAR EFHA 212250Z AUTO 30005KT 9000 -RA OVC011 04/04 Q1003
Observed Flight Rules
Apr-21 @ 22:50 UTC (14 minutes ago) Marginal Visual Flight Rules
Wind Visibility Clouds Conditions
300° at 5 knots 8,996 meters
  • Overcast at 1,100' AGL
  • Light Rain
Temperatures Readings
Current 4°C / 39°F
Dewpoint 4°C / 39°F
Humidity 100%
Altimeter 29.62" Hg
Pressure 1003 hPa
Elevation 145
METAR EFHA 212250Z AUTO 30005KT 9000 -RA OVC011 04/04 Q1003
Observed Flight Rules
Apr-21 @ 22:50 UTC
(14 minutes ago)
MVFR
Wind Visibility
300° at 5 knots 8,996 meters
Clouds
  • Overcast at 1,100' AGL
Conditions
  • Light Rain
Temperature Dewpoint
4°C / 39°F 4°C / 39°F
Humidity Altimeter Pressure
100% 29.62" Hg 1003 hPa